createdAt,value
2022-11-13T00:02:23.875Z,102560.34
2022-11-13T00:07:45.584Z,102556.03
2022-11-13T00:13:07.259Z,102547.94
2022-11-13T00:18:32.474Z,102557.53
2022-11-13T00:23:56.060Z,102558.81
2022-11-13T00:29:17.754Z,102559.88
2022-11-13T00:34:49.212Z,102551.97
2022-11-13T00:40:11.230Z,102544.72
2022-11-13T00:45:32.875Z,102543.00
2022-11-13T00:50:55.142Z,102527.63
2022-11-13T00:56:16.831Z,102526.78
2022-11-13T01:01:38.538Z,102514.84
2022-11-13T01:07:00.398Z,102519.72
2022-11-13T01:12:22.204Z,102507.16
2022-11-13T01:17:43.866Z,102496.06
2022-11-13T01:23:05.612Z,102487.09
2022-11-13T01:28:27.617Z,102479.00
2022-11-13T01:33:49.753Z,102480.22
2022-11-13T01:39:12.424Z,102478.50
2022-11-13T01:44:53.820Z,102469.13
2022-11-13T01:50:15.510Z,102465.94
2022-11-13T01:55:37.181Z,102460.63
2022-11-13T02:00:58.936Z,102464.44
2022-11-13T02:06:22.112Z,102458.91
2022-11-13T02:11:44.267Z,102453.75
2022-11-13T02:17:11.539Z,102449.28
2022-11-13T02:22:41.535Z,102430.94
2022-11-13T02:28:03.185Z,102432.00
2022-11-13T02:33:30.232Z,102421.97
2022-11-13T02:38:54.183Z,102421.16
2022-11-13T02:44:15.895Z,102407.47
2022-11-13T02:49:37.585Z,102407.69
2022-11-13T02:54:59.334Z,102402.16
2022-11-13T03:00:21.010Z,102395.78
2022-11-13T03:05:42.672Z,102390.44
2022-11-13T03:11:09.770Z,102381.28
2022-11-13T03:16:31.480Z,102375.09
2022-11-13T03:21:53.146Z,102371.47
2022-11-13T03:27:14.938Z,102373.38
2022-11-13T03:32:36.605Z,102371.66
2022-11-13T03:37:58.247Z,102364.41
2022-11-13T03:43:20.143Z,102359.94
2022-11-13T03:48:41.883Z,102365.47
2022-11-13T03:54:04.148Z,102364.63
2022-11-13T03:59:25.782Z,102362.06
2022-11-13T04:04:47.490Z,102361.22
2022-11-13T04:10:09.358Z,102366.97
2022-11-13T04:15:31.134Z,102361.44
2022-11-13T04:20:52.805Z,102358.66
2022-11-13T04:26:14.526Z,102342.25
2022-11-13T04:31:36.203Z,102338.63
2022-11-13T04:36:58.179Z,102337.13
2022-11-13T04:42:38.298Z,102331.78
2022-11-13T04:48:00.010Z,102335.63
2022-11-13T04:53:21.668Z,102336.69
2022-11-13T04:58:43.415Z,102330.28
2022-11-13T05:04:05.213Z,102333.28
2022-11-13T05:09:26.889Z,102332.19
2022-11-13T05:14:48.943Z,102341.59
2022-11-13T05:20:11.395Z,102330.69
2022-11-13T05:25:33.054Z,102325.38
2022-11-13T05:31:02.382Z,102308.13
2022-11-13T05:36:24.099Z,102311.94
2022-11-13T05:41:45.779Z,102311.09
2022-11-13T05:47:07.447Z,102314.72
2022-11-13T05:52:29.117Z,102298.09
2022-11-13T05:57:50.767Z,102296.41
2022-11-13T06:03:12.394Z,102288.31
2022-11-13T06:08:34.235Z,102295.56
2022-11-13T06:13:56.901Z,102284.91
2022-11-13T06:19:18.551Z,102285.72
2022-11-13T06:24:40.181Z,102286.16
2022-11-13T06:30:01.819Z,102277.88
2022-11-13T06:35:23.468Z,102285.31
2022-11-13T06:40:45.205Z,102266.78
2022-11-13T06:46:11.753Z,102269.78
2022-11-13T06:51:33.724Z,102270.06
2022-11-13T06:56:55.482Z,102271.16
2022-11-13T07:02:17.198Z,102262.38
2022-11-13T07:07:38.930Z,102258.84
2022-11-13T07:13:00.777Z,102262.00
2022-11-13T07:18:23.978Z,102253.69
2022-11-13T07:23:48.434Z,102253.47
2022-11-13T07:29:10.112Z,102244.53
2022-11-13T07:34:31.775Z,102239.59
2022-11-13T07:39:53.467Z,102244.69
2022-11-13T07:45:15.129Z,102240.81
2022-11-13T07:50:38.806Z,102244.06
2022-11-13T07:56:02.091Z,102244.28
2022-11-13T08:01:23.926Z,102242.13
2022-11-13T08:06:45.636Z,102251.66
2022-11-13T08:12:07.659Z,102254.47
2022-11-13T08:17:29.380Z,102251.47
2022-11-13T08:22:51.509Z,102254.72
2022-11-13T08:28:13.736Z,102254.06
2022-11-13T08:33:35.393Z,102247.97
2022-11-13T08:38:57.136Z,102240.97
2022-11-13T08:44:18.893Z,102249.16
2022-11-13T08:49:40.545Z,102248.09
2022-11-13T08:55:02.176Z,102243.63
2022-11-13T09:00:23.897Z,102235.09
2022-11-13T09:05:45.582Z,102252.16
2022-11-13T09:11:07.399Z,102251.75
2022-11-13T09:16:29.126Z,102250.47
2022-11-13T09:21:51.929Z,102242.78
2022-11-13T09:27:13.656Z,102234.28
2022-11-13T09:32:35.465Z,102236.84
2022-11-13T09:37:57.148Z,102232.81
2022-11-13T09:43:35.334Z,102223.41
2022-11-13T09:49:07.117Z,102224.50
2022-11-13T09:54:29.058Z,102220.22
2022-11-13T10:00:07.283Z,102216.59
2022-11-13T10:05:34.718Z,102218.72
2022-11-13T10:11:16.402Z,102203.16
2022-11-13T10:16:56.235Z,102198.91
2022-11-13T10:22:32.857Z,102188.66
2022-11-13T10:28:21.428Z,102182.72
2022-11-13T10:33:44.697Z,102177.41
2022-11-13T10:39:09.079Z,102173.56
2022-11-13T10:44:37.992Z,102155.00
2022-11-13T10:50:19.011Z,102150.28
2022-11-13T10:55:41.464Z,102128.13
2022-11-13T11:01:14.829Z,102127.91
2022-11-13T11:12:30.706Z,102120.91
2022-11-13T11:17:59.577Z,102111.94
2022-11-13T11:24:03.153Z,102104.28
2022-11-13T11:29:39.629Z,102095.97
2022-11-13T11:35:12.616Z,102080.41
2022-11-13T11:40:42.522Z,102072.91
2022-11-13T11:46:04.772Z,102061.00
2022-11-13T11:51:41.290Z,102065.47
2022-11-13T11:57:38.478Z,102060.34
2022-11-13T12:03:00.121Z,102041.19
2022-11-13T12:08:37.926Z,102036.06
2022-11-13T12:14:30.382Z,102031.78
2022-11-13T12:20:26.250Z,102028.41
2022-11-13T12:26:13.659Z,102013.94
2022-11-13T12:31:41.066Z,102010.53
2022-11-13T12:37:10.301Z,101994.72
2022-11-13T12:42:55.273Z,101981.09
2022-11-13T12:48:16.915Z,101964.88
2022-11-13T12:53:53.497Z,101960.22
2022-11-13T12:59:30.735Z,101954.47
2022-11-13T13:05:19.453Z,101942.69
2022-11-13T13:10:53.054Z,101937.09
2022-11-13T13:16:24.184Z,101924.84
2022-11-13T13:21:45.895Z,101923.06
2022-11-13T13:27:25.419Z,101921.47
2022-11-13T13:33:19.257Z,101908.47
2022-11-13T13:38:56.041Z,101911.25
2022-11-13T13:44:35.970Z,101895.91
2022-11-13T13:49:58.342Z,101885.50
2022-11-13T13:55:36.063Z,101885.72
2022-11-13T14:01:18.436Z,101883.63
2022-11-13T14:06:52.820Z,101881.28
2022-11-13T14:12:20.155Z,101879.41
2022-11-13T14:17:41.797Z,101871.78
2022-11-13T14:23:03.600Z,101864.97
2022-11-13T14:28:28.997Z,101865.41
2022-11-13T14:33:50.873Z,101857.16
2022-11-13T14:39:33.090Z,101859.47
2022-11-13T14:45:05.268Z,101852.22
2022-11-13T14:50:28.976Z,101855.00
2022-11-13T14:55:53.250Z,101856.72
2022-11-13T15:01:20.872Z,101851.16
2022-11-13T15:06:42.532Z,101852.69
2022-11-13T15:12:04.336Z,101854.22
2022-11-13T15:17:26.047Z,101853.59
2022-11-13T15:22:48.035Z,101848.47
2022-11-13T15:28:09.815Z,101842.53
2022-11-13T15:33:31.638Z,101838.31
2022-11-13T15:38:53.668Z,101822.94
2022-11-13T15:44:15.835Z,101819.75
2022-11-13T15:49:37.616Z,101812.28
2022-11-13T15:55:01.470Z,101807.41
2022-11-13T16:00:25.782Z,101797.72
2022-11-13T16:05:47.496Z,101781.28
2022-11-13T16:11:15.013Z,101776.06
2022-11-13T16:16:40.930Z,101773.91
2022-11-13T16:22:02.538Z,101766.84
2022-11-13T16:27:33.099Z,101761.19
2022-11-13T16:32:54.742Z,101765.94
2022-11-13T16:38:16.399Z,101767.06
2022-11-13T16:43:38.521Z,101761.56
2022-11-13T16:49:00.673Z,101761.88
2022-11-13T16:54:22.618Z,101766.41
2022-11-13T16:59:44.610Z,101777.13
2022-11-13T17:05:06.756Z,101768.41
2022-11-13T17:10:32.858Z,101755.63
2022-11-13T17:21:17.221Z,101756.47
2022-11-13T17:26:38.857Z,101762.88
2022-11-13T17:32:00.598Z,101751.78
2022-11-13T17:37:25.136Z,101735.53
2022-11-13T17:42:48.637Z,101736.97
2022-11-13T17:48:10.557Z,101738.00
2022-11-13T17:53:33.189Z,101742.63
2022-11-13T17:58:54.855Z,101733.00
2022-11-13T18:04:16.475Z,101728.91
2022-11-13T18:09:38.302Z,101729.94
2022-11-13T18:14:59.919Z,101728.38
2022-11-13T18:20:21.643Z,101728.81
2022-11-13T18:25:43.634Z,101721.34
2022-11-13T18:31:10.607Z,101709.81
2022-11-13T18:36:33.306Z,101697.03
2022-11-13T18:41:59.276Z,101695.88
2022-11-13T18:47:23.702Z,101683.97
2022-11-13T18:52:45.422Z,101690.38
2022-11-13T18:58:07.057Z,101684.69
2022-11-13T19:03:29.108Z,101679.38
2022-11-13T19:09:03.265Z,101666.81
2022-11-13T19:14:24.948Z,101663.53
2022-11-13T19:19:46.608Z,101660.03
2022-11-13T19:25:08.638Z,101646.50
2022-11-13T19:30:30.586Z,101644.94
2022-11-13T19:35:54.446Z,101639.47
2022-11-13T19:41:16.130Z,101634.91
2022-11-13T19:46:37.951Z,101626.91
2022-11-13T19:51:59.625Z,101623.19
2022-11-13T19:57:21.307Z,101625.00
2022-11-13T20:02:43.191Z,101622.09
2022-11-13T20:08:05.163Z,101611.72
2022-11-13T20:13:26.872Z,101603.00
2022-11-13T20:18:48.819Z,101599.63
2022-11-13T20:24:10.570Z,101603.72
2022-11-13T20:29:34.882Z,101606.03
2022-11-13T20:34:56.551Z,101603.75
2022-11-13T20:40:18.438Z,101602.63
2022-11-13T20:45:40.153Z,101601.03
2022-11-13T20:51:19.640Z,101590.53
2022-11-13T20:56:41.394Z,101602.72
2022-11-13T21:02:03.135Z,101591.09
2022-11-13T21:07:24.969Z,101585.88
2022-11-13T21:12:46.685Z,101579.97
2022-11-13T21:18:08.476Z,101572.84
2022-11-13T21:23:30.327Z,101567.94
2022-11-13T21:28:56.810Z,101557.41
2022-11-13T21:34:18.548Z,101548.25
2022-11-13T21:39:40.228Z,101536.66
2022-11-13T21:45:01.929Z,101530.88
2022-11-13T21:50:23.668Z,101536.81
2022-11-13T21:55:51.705Z,101541.88
2022-11-13T22:01:13.897Z,101532.47
2022-11-13T22:06:36.580Z,101530.06
2022-11-13T22:11:58.415Z,101508.19
2022-11-13T22:17:20.047Z,101495.72
2022-11-13T22:22:41.681Z,101487.75
2022-11-13T22:28:03.408Z,101473.16
2022-11-13T22:33:33.075Z,101463.25
2022-11-13T22:38:55.703Z,101459.97
2022-11-13T22:44:17.410Z,101455.38
2022-11-13T22:49:39.074Z,101457.78
2022-11-13T22:55:01.238Z,101450.44
2022-11-13T23:00:23.080Z,101465.00
2022-11-13T23:05:44.795Z,101460.16
2022-11-13T23:11:18.023Z,101460.03
2022-11-13T23:16:39.858Z,101464.31
2022-11-13T23:22:01.507Z,101454.56
2022-11-13T23:27:23.276Z,101443.09
2022-11-13T23:32:44.942Z,101437.19
2022-11-13T23:38:06.686Z,101433.81
2022-11-13T23:43:53.944Z,101426.56
2022-11-13T23:49:10.829Z,101421.50
2022-11-13T23:54:32.527Z,101415.56
2022-11-13T23:59:54.360Z,101405.81
